createdAt,value
2022-12-26T00:03:15.792Z,0.7
2022-12-26T00:09:35.577Z,0.7
2022-12-26T00:15:58.551Z,1.1
2022-12-26T00:22:18.499Z,1.1
2022-12-26T00:28:41.568Z,0.8
2022-12-26T00:35:01.569Z,0.8
2022-12-26T00:41:24.612Z,0.5
2022-12-26T00:47:44.546Z,0.5
2022-12-26T00:54:07.624Z,0.8
2022-12-26T01:00:27.566Z,0.8
2022-12-26T01:06:50.563Z,2.2
2022-12-26T01:13:10.572Z,2.2
2022-12-26T01:19:33.637Z,0.6
2022-12-26T01:26:16.005Z,0.6
2022-12-26T01:32:16.568Z,1.9
2022-12-26T01:38:36.587Z,1.9
2022-12-26T01:44:59.673Z,1.2
2022-12-26T01:51:19.683Z,1.2
2022-12-26T01:57:42.638Z,1.4
2022-12-26T02:04:02.572Z,1.4
2022-12-26T02:10:25.566Z,0.6
2022-12-26T02:16:45.561Z,0.6
2022-12-26T02:23:08.529Z,0.9
2022-12-26T02:29:28.486Z,0.9
2022-12-26T02:35:51.592Z,0.8
2022-12-26T02:42:11.547Z,0.8
2022-12-26T02:48:34.541Z,1.1
2022-12-26T02:54:54.607Z,1.1
2022-12-26T03:01:17.666Z,0.4
2022-12-26T03:07:37.523Z,0.4
2022-12-26T03:14:00.662Z,1.3
2022-12-26T03:20:20.514Z,1.3
2022-12-26T03:26:43.536Z,1.9
2022-12-26T03:33:03.637Z,1.9
2022-12-26T03:39:26.585Z,1.8
2022-12-26T03:45:46.555Z,1.8
2022-12-26T03:52:09.533Z,2.1
2022-12-26T03:58:29.659Z,2.1
2022-12-26T04:04:52.572Z,2.3
2022-12-26T04:11:12.550Z,2.3
2022-12-26T04:17:35.595Z,1
2022-12-26T04:23:55.558Z,1
2022-12-26T04:30:18.575Z,0.8
2022-12-26T04:46:45.141Z,0.8
2022-12-26T04:53:07.024Z,1.1
2022-12-26T04:59:26.500Z,1.1
2022-12-26T05:05:49.537Z,1.1
2022-12-26T05:12:09.536Z,1.1
2022-12-26T05:18:32.513Z,0.5
2022-12-26T05:24:52.562Z,0.5
2022-12-26T05:31:15.596Z,0.9
2022-12-26T05:37:35.590Z,0.9
2022-12-26T05:43:58.551Z,0.6
2022-12-26T05:50:18.488Z,0.6
2022-12-26T05:56:45.847Z,0.4
2022-12-26T06:03:01.621Z,0.4
2022-12-26T06:09:24.595Z,0.6
2022-12-26T06:15:44.508Z,0.6
2022-12-26T06:22:07.547Z,0.1
2022-12-26T06:28:27.555Z,0.1
2022-12-26T06:34:50.507Z,1
2022-12-26T06:41:10.647Z,1
2022-12-26T06:47:33.561Z,0.6
2022-12-26T06:53:53.725Z,0.6
2022-12-26T07:00:16.624Z,0.7
2022-12-26T07:06:36.522Z,0.7
2022-12-26T07:12:59.589Z,0.5
2022-12-26T07:19:19.588Z,0.5
2022-12-26T07:25:42.537Z,0.4
2022-12-26T07:32:02.667Z,0.4
2022-12-26T07:38:25.546Z,1.3
2022-12-26T07:44:45.593Z,1.3
2022-12-26T07:51:08.557Z,0.1
2022-12-26T07:57:47.843Z,0.1
2022-12-26T08:03:51.605Z,0.8
2022-12-26T08:10:11.583Z,0.8
2022-12-26T08:16:34.698Z,0.7
2022-12-26T08:29:17.548Z,1
2022-12-26T08:35:37.612Z,1
2022-12-26T08:42:00.549Z,1.1
2022-12-26T08:48:20.600Z,1.1
2022-12-26T08:54:43.599Z,0.9
2022-12-26T09:01:03.682Z,0.9
2022-12-26T09:07:26.616Z,0.9
2022-12-26T09:13:46.598Z,0.9
2022-12-26T09:20:09.629Z,1.9
2022-12-26T09:26:29.532Z,1.9
2022-12-26T09:32:52.621Z,1.6
2022-12-26T09:39:12.661Z,1.6
2022-12-26T09:45:35.585Z,1.7
2022-12-26T09:51:55.594Z,1.7
2022-12-26T10:15:37.555Z,4.4
2022-12-26T10:22:00.496Z,4.4
2022-12-26T10:28:20.538Z,4.4
2022-12-26T10:34:43.592Z,1.8
2022-12-26T10:41:03.551Z,1.8
2022-12-26T10:47:26.597Z,1.4
2022-12-26T10:53:46.531Z,1.4
2022-12-26T11:00:09.524Z,0.4
2022-12-26T11:06:29.627Z,0.4
2022-12-26T11:12:52.562Z,0.5
2022-12-26T11:19:12.585Z,0.5
2022-12-26T11:25:35.581Z,0.9
2022-12-26T11:31:55.585Z,0.9
2022-12-26T11:38:18.544Z,0.6
2022-12-26T11:44:38.528Z,0.6
2022-12-26T11:51:01.589Z,0.8
2022-12-26T11:57:21.485Z,0.8
2022-12-26T12:03:49.139Z,0.1
2022-12-26T12:10:04.564Z,0.1
2022-12-26T12:16:27.563Z,0.1
2022-12-26T12:22:47.615Z,0.1
2022-12-26T12:29:10.531Z,0.3
2022-12-26T12:35:30.512Z,0.3
2022-12-26T12:41:53.739Z,1.4
2022-12-26T12:48:13.539Z,1.4
2022-12-26T12:54:36.598Z,0.3
2022-12-26T13:00:56.558Z,0.3
2022-12-26T13:07:20.195Z,0.1
2022-12-26T13:13:39.611Z,0.1
2022-12-26T13:20:03.155Z,0.4
2022-12-26T13:26:22.613Z,0.4
2022-12-26T13:32:46.671Z,0.2
2022-12-26T13:39:05.607Z,0.2
2022-12-26T13:45:28.693Z,1.6
2022-12-26T13:51:48.559Z,1.6
2022-12-26T13:58:11.680Z,0.7
2022-12-26T14:04:31.635Z,0.7
2022-12-26T14:10:54.511Z,0.9
2022-12-26T14:17:14.698Z,0.9
2022-12-26T14:23:37.603Z,0.1
2022-12-26T14:29:57.556Z,0.1
2022-12-26T14:36:20.552Z,0.1
2022-12-26T14:42:40.577Z,0.1
2022-12-26T14:49:03.612Z,0.8
2022-12-26T14:55:23.606Z,0.8
2022-12-26T15:01:46.723Z,1.9
2022-12-26T15:08:06.607Z,1.9
2022-12-26T15:14:29.533Z,2
2022-12-26T15:20:49.627Z,2
2022-12-26T15:27:12.575Z,1.5
2022-12-26T15:43:56.169Z,1.4
2022-12-26T15:50:19.039Z,2.1
2022-12-26T15:56:38.517Z,2.1
2022-12-26T16:03:01.727Z,2.1
2022-12-26T16:09:21.654Z,2.1
2022-12-26T16:15:44.624Z,1.2
2022-12-26T16:22:04.522Z,1.2
2022-12-26T16:28:27.520Z,1.9
2022-12-26T16:34:47.627Z,1.9
2022-12-26T16:41:10.615Z,1.3
2022-12-26T16:47:30.605Z,1.3
2022-12-26T16:53:53.912Z,1.6
2022-12-26T17:00:13.534Z,1.6
2022-12-26T17:06:36.595Z,1.8
2022-12-26T17:12:56.588Z,1.8
2022-12-26T17:19:19.689Z,2.8
2022-12-26T17:25:39.682Z,2.8
2022-12-26T17:32:02.554Z,2.4
2022-12-26T17:38:22.659Z,2.4
2022-12-26T17:44:45.556Z,1.6
2022-12-26T17:51:05.593Z,1.6
2022-12-26T17:57:28.644Z,3.5
2022-12-26T18:03:48.657Z,3.5
2022-12-26T18:10:11.603Z,4.8
2022-12-26T18:16:31.564Z,4.8
2022-12-26T18:22:54.544Z,2.8
2022-12-26T18:29:14.581Z,2.8
2022-12-26T18:35:37.584Z,1.2
2022-12-26T18:41:57.602Z,1.2
2022-12-26T18:48:20.503Z,3.9
2022-12-26T18:54:40.558Z,3.9
2022-12-26T19:01:03.587Z,2.4
2022-12-26T19:07:23.586Z,2.4
2022-12-26T19:13:46.603Z,1
2022-12-26T19:20:06.544Z,1
2022-12-26T19:26:29.661Z,1.4
2022-12-26T19:32:49.538Z,1.4
2022-12-26T19:39:12.629Z,1.4
2022-12-26T19:45:32.663Z,1.4
2022-12-26T19:51:55.562Z,0.9
2022-12-26T19:58:15.626Z,0.9
2022-12-26T20:04:38.548Z,0.9
2022-12-26T20:11:00.826Z,0.9
2022-12-26T20:17:21.730Z,1.2
2022-12-26T20:23:41.620Z,1.2
2022-12-26T20:30:04.552Z,1.8
2022-12-26T20:36:24.620Z,1.8
2022-12-26T20:53:29.119Z,2.4
2022-12-26T20:59:48.457Z,2.4
2022-12-26T21:06:11.513Z,2.8
2022-12-26T21:12:31.659Z,2.8
2022-12-26T21:18:54.791Z,2.8
2022-12-26T21:25:14.815Z,2.8
2022-12-26T21:31:37.560Z,0.6
2022-12-26T21:37:57.585Z,0.6
2022-12-26T21:44:20.553Z,1.2
2022-12-26T21:50:40.523Z,1.2
2022-12-26T21:57:03.667Z,0.7
2022-12-26T22:03:23.725Z,0.7
2022-12-26T22:09:46.586Z,2.4
2022-12-26T22:16:06.622Z,2.4
2022-12-26T22:22:29.642Z,0.6
2022-12-26T22:28:49.511Z,0.6
2022-12-26T22:35:18.329Z,0.8
2022-12-26T22:41:32.587Z,0.8
2022-12-26T22:47:55.664Z,0.9
2022-12-26T22:54:15.706Z,0.9
2022-12-26T23:00:38.532Z,0.8
2022-12-26T23:23:35.556Z,1.4
2022-12-26T23:29:55.570Z,1.4
2022-12-26T23:36:18.506Z,1.4
2022-12-26T23:42:38.570Z,1.4
2022-12-26T23:49:01.479Z,1.5
2022-12-26T23:55:21.553Z,1.5
